Time;durP1;ratioP1;P1;durP2;ratioP2;P2;SDS_P1;SDS_P2;PMS_P1;PMS_P2;Temp;Humidity;BMP_temperature;BMP_pressure;BME280_temperature;BME280_humidity;BME280_pressure;Samples;Min_cycle;Max_cycle;Signal;HPM_P1;HPM_P2
2023/01/31 00:04:54;;;;;;;24.67;4.65;;;;;;;3.26;100.00;102046.38;10485703;28;20067;-72
2023/01/31 00:09:55;;;;;;;26.88;5.70;;;;;;;3.19;100.00;102042.69;10466197;28;20041;-73
2023/01/31 00:14:55;;;;;;;22.73;4.70;;;;;;;3.15;100.00;102044.91;10450917;28;20036;-73
2023/01/31 00:19:56;;;;;;;23.77;5.03;;;;;;;3.03;100.00;102030.00;10467495;28;20039;-73
2023/01/31 00:24:56;;;;;;;29.02;4.43;;;;;;;2.93;100.00;102045.66;10468251;28;20039;-69
2023/01/31 00:29:57;;;;;;;31.02;5.65;;;;;;;2.81;100.00;102043.34;10468869;28;20051;-72
2023/01/31 00:34:57;;;;;;;20.05;4.03;;;;;;;2.60;100.00;102002.25;10476525;28;20043;-73
2023/01/31 00:39:58;;;;;;;29.20;4.63;;;;;;;2.74;100.00;102036.88;10523804;28;20032;-73
2023/01/31 00:44:58;;;;;;;29.73;5.00;;;;;;;2.65;100.00;102026.19;10540441;28;20039;-74
2023/01/31 00:49:59;;;;;;;37.17;6.57;;;;;;;2.60;100.00;102030.31;10508307;28;20036;-73
2023/01/31 00:54:59;;;;;;;24.45;4.63;;;;;;;2.54;100.00;102031.00;10525636;28;20036;-72
2023/01/31 01:00:00;;;;;;;22.85;4.90;;;;;;;2.42;100.00;102048.69;10525740;28;20044;-73
2023/01/31 01:05:00;;;;;;;23.92;4.35;;;;;;;2.34;100.00;102051.41;10487892;28;20036;-73
2023/01/31 01:10:01;;;;;;;24.38;5.55;;;;;;;2.32;100.00;102048.03;10490265;28;20036;-73
2023/01/31 01:15:01;;;;;;;29.10;7.00;;;;;;;2.41;100.00;102030.66;10490639;28;20036;-73
2023/01/31 01:20:02;;;;;;;28.20;5.80;;;;;;;2.37;100.00;102018.44;10508004;28;20043;-72
2023/01/31 01:25:03;;;;;;;25.77;5.97;;;;;;;2.44;100.00;102024.91;10507731;28;20037;-72
2023/01/31 01:30:05;;;;;;;23.17;4.47;;;;;;;2.38;100.00;102031.03;10524550;28;20048;-72
2023/01/31 01:35:05;;;;;;;25.13;4.63;;;;;;;2.19;100.00;102021.34;10498460;28;20051;-73
2023/01/31 01:40:07;;;;;;;25.60;5.30;;;;;;;2.14;100.00;102032.72;10447026;28;20044;-73
2023/01/31 01:45:15;;;;;;;20.47;3.77;;;;;;;2.11;100.00;102029.50;10481473;28;20040;-72
2023/01/31 01:50:29;;;;;;;24.80;4.43;;;;;;;2.11;100.00;102049.38;10482060;28;20400;-72
2023/01/31 01:55:41;;;;;;;19.00;4.05;;;;;;;2.13;100.00;102036.47;10482926;28;20028;-72
2023/01/31 02:00:43;;;;;;;26.98;5.57;;;;;;;2.06;100.00;102027.28;10490301;28;20127;-73
2023/01/31 02:05:51;;;;;;;24.50;5.68;;;;;;;2.09;100.00;102024.25;10457022;28;20036;-73
2023/01/31 02:10:55;;;;;;;14.23;2.90;;;;;;;2.14;100.00;102030.00;10463116;28;20096;-73
2023/01/31 02:15:55;;;;;;;29.63;5.00;;;;;;;1.97;100.00;101990.31;10486968;28;20065;-72
2023/01/31 02:21:15;;;;;;;19.15;3.92;;;;;;;2.10;100.00;102006.91;10456687;28;20033;-72
2023/01/31 02:26:37;;;;;;;16.05;3.40;;;;;;;2.19;100.00;102000.47;10489411;28;20066;-73
2023/01/31 02:31:50;;;;;;;23.77;4.95;;;;;;;2.30;100.00;102007.41;10472049;28;20049;-73
2023/01/31 02:37:15;;;;;;;29.48;5.72;;;;;;;2.39;100.00;101997.38;10471688;28;20040;-73
2023/01/31 02:42:21;;;;;;;18.38;3.53;;;;;;;2.50;100.00;101991.59;10506991;28;20041;-72
2023/01/31 02:47:43;;;;;;;28.48;4.88;;;;;;;2.60;100.00;101997.69;10489175;28;20043;-73
2023/01/31 02:52:59;;;;;;;28.20;5.50;;;;;;;2.67;100.00;101992.41;10471210;28;20040;-73
2023/01/31 02:57:59;;;;;;;18.80;3.95;;;;;;;2.67;100.00;101980.66;10505847;28;20131;-73
2023/01/31 03:03:02;;;;;;;22.52;5.28;;;;;;;2.49;100.00;101951.81;10470456;28;20040;-73
2023/01/31 03:08:04;;;;;;;26.75;5.13;;;;;;;2.56;100.00;101971.88;10453973;28;20052;-73
2023/01/31 03:13:34;;;;;;;18.40;3.70;;;;;;;2.57;100.00;101970.00;10454602;28;20036;-73
2023/01/31 03:18:43;;;;;;;20.00;4.50;;;;;;;2.60;100.00;101964.19;10504936;28;20052;-72
2023/01/31 03:23:45;;;;;;;19.17;3.47;;;;;;;2.60;100.00;101950.59;10471773;28;20036;-73
2023/01/31 03:28:45;;;;;;;18.15;3.65;;;;;;;2.52;100.00;101927.03;10470211;28;20098;-72
2023/01/31 03:33:48;;;;;;;23.90;4.25;;;;;;;2.63;100.00;101932.06;10470800;28;20498;-72
2023/01/31 03:39:08;;;;;;;18.02;4.53;;;;;;;2.76;100.00;101926.06;10471286;28;20036;-73
2023/01/31 03:44:15;;;;;;;23.40;3.38;;;;;;;2.83;100.00;101920.75;10486333;28;20068;-72
2023/01/31 03:49:16;;;;;;;14.00;2.97;;;;;;;2.93;100.00;101921.38;10470184;28;20037;-73
2023/01/31 03:54:18;;;;;;;13.60;3.50;;;;;;;2.99;100.00;101904.34;10452478;28;20477;-73
2023/01/31 03:59:21;;;;;;;21.25;3.10;;;;;;;3.03;100.00;101889.34;10469552;28;20056;-73
2023/01/31 04:04:24;;;;;;;30.70;4.93;;;;;;;3.10;100.00;101888.66;10497067;28;20032;-72
2023/01/31 04:09:25;;;;;;;8.20;2.92;;;;;;;3.09;100.00;101882.38;10492540;28;20053;-73
2023/01/31 04:14:26;;;;;;;17.63;3.65;;;;;;;3.15;100.00;101891.69;10508526;28;20036;-73
2023/01/31 04:19:26;;;;;;;16.05;4.05;;;;;;;3.19;100.00;101884.84;10473507;28;20052;-73
2023/01/31 04:24:27;;;;;;;16.23;3.92;;;;;;;2.81;100.00;101816.75;10484445;28;20029;-72
2023/01/31 04:29:27;;;;;;;12.38;3.47;;;;;;;3.27;100.00;101879.34;10467787;28;20045;-72
2023/01/31 04:34:27;;;;;;;16.95;3.42;;;;;;;3.33;100.00;101873.19;10468089;28;20119;-73
2023/01/31 04:39:28;;;;;;;17.58;3.75;;;;;;;3.35;100.00;101865.69;10499510;28;20033;-73
2023/01/31 04:44:28;;;;;;;17.35;3.50;;;;;;;3.40;100.00;101874.13;10466836;28;20496;-72
2023/01/31 04:49:29;;;;;;;18.30;5.43;;;;;;;3.44;100.00;101858.28;10483767;28;20036;-70
2023/01/31 04:54:29;;;;;;;24.17;6.93;;;;;;;3.47;100.00;101873.41;10483661;28;20779;-73
2023/01/31 04:59:30;;;;;;;18.52;3.75;;;;;;;3.56;100.00;101864.16;10484036;28;20066;-72
2023/01/31 05:04:30;;;;;;;19.33;5.60;;;;;;;3.59;100.00;101856.44;10454692;28;20415;-73
2023/01/31 05:09:31;;;;;;;18.60;4.70;;;;;;;3.66;100.00;101840.25;10480558;28;20397;-72
2023/01/31 05:14:31;;;;;;;19.70;4.22;;;;;;;3.36;100.00;101790.31;10465252;28;20466;-73
2023/01/31 05:19:32;;;;;;;25.13;5.50;;;;;;;3.70;100.00;101833.38;10482442;28;20044;-73
2023/01/31 05:24:32;;;;;;;17.25;4.15;;;;;;;3.71;100.00;101848.69;10465850;28;20032;-72
2023/01/31 05:29:33;;;;;;;22.85;4.43;;;;;;;3.68;100.00;101827.28;10466092;28;20044;-72
2023/01/31 05:34:33;;;;;;;28.27;5.65;;;;;;;3.75;100.00;101830.09;10448966;28;20033;-72
2023/01/31 05:39:34;;;;;;;27.13;5.18;;;;;;;3.76;100.00;101819.03;10464417;28;20058;-68
2023/01/31 05:44:34;;;;;;;26.40;6.68;;;;;;;3.81;100.00;101822.03;10500174;28;20040;-72
2023/01/31 05:49:35;;;;;;;21.42;5.22;;;;;;;3.84;100.00;101810.78;10523179;28;20051;-73
2023/01/31 05:54:35;;;;;;;26.05;5.38;;;;;;;3.88;100.00;101799.50;10506660;28;20063;-72
2023/01/31 05:59:36;;;;;;;24.55;6.03;;;;;;;3.89;100.00;101793.03;10507299;28;20066;-72
2023/01/31 06:04:37;;;;;;;37.25;6.25;;;;;;;3.83;100.00;101767.38;10505837;28;20044;-73
2023/01/31 06:09:39;;;;;;;22.70;6.68;;;;;;;3.89;100.00;101763.06;10506489;28;20032;-72
2023/01/31 06:14:39;;;;;;;28.08;6.00;;;;;;;3.98;100.00;101772.81;10488981;28;20044;-73
2023/01/31 06:19:40;;;;;;;20.90;5.43;;;;;;;3.99;100.00;101758.13;10471713;28;20115;-73
2023/01/31 06:24:40;;;;;;;22.75;5.60;;;;;;;4.01;100.00;101772.41;10505950;28;20319;-73
2023/01/31 06:29:41;;;;;;;24.70;6.30;;;;;;;3.98;100.00;101740.13;10489916;28;20040;-73
2023/01/31 06:34:41;;;;;;;23.77;5.72;;;;;;;4.07;100.00;101759.91;10522672;28;20040;-73
2023/01/31 06:39:42;;;;;;;28.67;6.60;;;;;;;4.15;100.00;101743.47;10505284;28;20052;-73
2023/01/31 06:44:42;;;;;;;27.52;6.90;;;;;;;4.21;100.00;101729.06;10506341;28;20041;-74
2023/01/31 06:49:43;;;;;;;38.10;7.18;;;;;;;4.25;100.00;101719.47;10470718;28;20037;-73
2023/01/31 06:54:43;;;;;;;39.15;7.40;;;;;;;4.26;100.00;101729.38;10488380;28;20546;-72
2023/01/31 06:59:44;;;;;;;23.08;7.38;;;;;;;4.39;100.00;101709.59;10472024;28;20511;-73
2023/01/31 07:04:44;;;;;;;35.88;7.07;;;;;;;4.41;100.00;101707.50;10487952;28;20048;-73
2023/01/31 07:09:45;;;;;;;31.58;6.82;;;;;;;4.39;100.00;101682.31;10487187;28;20036;-73
2023/01/31 07:14:45;;;;;;;30.15;7.80;;;;;;;4.55;100.00;101682.06;10469716;28;20033;-73
2023/01/31 07:19:46;;;;;;;33.83;9.43;;;;;;;4.47;100.00;101652.19;10470230;28;20024;-73
2023/01/31 07:24:49;;;;;;;18.23;5.55;;;;;;;4.58;100.00;101669.91;10470877;28;20056;-70
2023/01/31 07:29:49;;;;;;;28.80;5.30;;;;;;;4.65;100.00;101671.69;10471499;28;20029;-72
2023/01/31 07:34:50;;;;;;;23.35;6.32;;;;;;;4.68;100.00;101669.59;10469909;28;20416;-73
2023/01/31 07:39:50;;;;;;;23.40;5.80;;;;;;;4.72;100.00;101668.16;10505102;28;20439;-72
2023/01/31 07:44:51;;;;;;;19.83;4.72;;;;;;;4.70;100.00;101645.69;10503406;28;20564;-73
2023/01/31 07:49:51;;;;;;;29.95;5.53;;;;;;;4.79;100.00;101655.41;10507265;28;20047;-72
2023/01/31 07:54:51;;;;;;;20.20;6.03;;;;;;;4.88;100.00;101645.19;10526794;28;20043;-72
2023/01/31 07:59:52;;;;;;;32.45;7.00;;;;;;;4.87;100.00;101617.06;10528006;28;20044;-72
2023/01/31 08:04:52;;;;;;;15.13;5.28;;;;;;;4.97;100.00;101631.22;10510855;28;20032;-72
2023/01/31 08:09:53;;;;;;;12.98;4.43;;;;;;;5.07;100.00;101630.03;10487895;28;20043;-72
2023/01/31 08:14:53;;;;;;;17.77;3.92;;;;;;;5.03;100.00;101608.59;10450458;28;20033;-73
2023/01/31 08:19:54;;;;;;;16.42;5.35;;;;;;;5.15;100.00;101602.59;10476751;28;20048;-73
2023/01/31 08:24:54;;;;;;;10.05;3.85;;;;;;;5.19;100.00;101595.69;10544528;28;20376;-70
2023/01/31 08:29:55;;;;;;;15.55;4.15;;;;;;;5.20;100.00;101598.19;10510065;28;21171;-73
2023/01/31 08:34:55;;;;;;;18.27;3.97;;;;;;;5.29;100.00;101601.59;10501909;28;20488;-72
2023/01/31 08:39:56;;;;;;;19.08;5.07;;;;;;;5.36;100.00;101609.84;10454691;28;20480;-74
2023/01/31 08:44:56;;;;;;;16.17;4.65;;;;;;;5.43;100.00;101599.78;10466318;28;20086;-72
2023/01/31 08:49:56;;;;;;;13.30;4.32;;;;;;;5.50;100.00;101608.88;10501369;28;20056;-73
2023/01/31 08:54:57;;;;;;;24.27;5.00;;;;;;;5.50;100.00;101597.09;10467457;28;20036;-73
2023/01/31 08:59:57;;;;;;;26.83;6.90;;;;;;;5.42;100.00;101568.91;10450714;28;20040;-72
2023/01/31 09:04:58;;;;;;;18.98;5.47;;;;;;;5.54;100.00;101585.56;10463624;28;20055;-72
2023/01/31 09:09:58;;;;;;;29.15;5.65;;;;;;;5.56;100.00;101580.75;10495244;28;20422;-71
2023/01/31 09:14:59;;;;;;;18.20;5.30;;;;;;;5.62;100.00;101565.41;10490675;28;20621;-72
2023/01/31 09:20:05;;;;;;;17.45;4.38;;;;;;;5.66;100.00;101550.28;10507627;28;20029;-72
2023/01/31 09:25:06;;;;;;;21.45;4.95;;;;;;;5.76;100.00;101548.00;10509152;28;20518;-72
2023/01/31 09:30:07;;;;;;;15.70;3.88;;;;;;;5.81;100.00;101561.91;10542442;28;20071;-71
2023/01/31 09:35:08;;;;;;;16.15;4.93;;;;;;;5.71;100.00;101536.88;10490052;28;20059;-71
2023/01/31 09:40:09;;;;;;;23.98;4.85;;;;;;;5.73;100.00;101532.03;10473268;28;20566;-70
2023/01/31 09:45:15;;;;;;;18.33;3.95;;;;;;;5.69;100.00;101506.19;10489078;28;20035;-72
2023/01/31 09:50:33;;;;;;;23.73;4.53;;;;;;;5.71;100.00;101506.81;10481395;28;20155;-72
2023/01/31 09:56:04;;;;;;;17.92;3.28;;;;;;;5.81;100.00;101520.09;10482319;28;20028;-77
2023/01/31 10:01:10;;;;;;;18.58;4.78;;;;;;;5.75;100.00;101491.69;10505662;28;20454;-72
2023/01/31 10:06:21;;;;;;;27.00;5.20;;;;;;;5.84;100.00;101523.22;10484769;28;20067;-71
2023/01/31 10:11:43;;;;;;;26.90;4.25;;;;;;;5.94;100.00;101491.94;10501599;28;20048;-72
2023/01/31 10:16:49;;;;;;;24.65;4.97;;;;;;;5.94;100.00;101491.94;10505122;28;20040;-71
2023/01/31 10:21:55;;;;;;;18.55;4.28;;;;;;;6.00;100.00;101510.28;10478903;28;20151;-72
2023/01/31 10:26:59;;;;;;;20.15;4.03;;;;;;;6.06;100.00;101513.00;10494582;28;20095;-72
2023/01/31 10:32:03;;;;;;;24.27;6.55;;;;;;;6.11;100.00;101517.84;10495693;28;20046;-71
2023/01/31 10:37:06;;;;;;;19.85;5.25;;;;;;;6.18;100.00;101524.16;10526899;28;20047;-73
2023/01/31 10:42:11;;;;;;;23.27;5.60;;;;;;;6.18;100.00;101526.03;10496497;28;20039;-71
2023/01/31 10:47:15;;;;;;;17.40;3.97;;;;;;;6.22;100.00;101527.31;10507644;28;20037;-72
2023/01/31 10:52:27;;;;;;;15.13;4.80;;;;;;;6.22;100.00;101521.84;10489531;28;20100;-72
2023/01/31 10:57:27;;;;;;;24.05;6.28;;;;;;;6.03;100.00;101512.56;10525547;28;20656;-72
2023/01/31 11:02:28;;;;;;;19.35;4.30;;;;;;;6.14;100.00;101511.97;10512318;28;20055;-72
2023/01/31 11:07:29;;;;;;;12.85;5.03;;;;;;;6.00;100.00;101510.28;10493221;28;20158;-72
2023/01/31 11:13:00;;;;;;;21.83;6.18;;;;;;;5.91;100.00;101506.00;10527671;28;20059;-72
2023/01/31 11:18:01;;;;;;;22.73;5.05;;;;;;;5.93;100.00;101498.44;10532592;28;20047;-73
2023/01/31 11:23:02;;;;;;;16.15;6.00;;;;;;;5.93;100.00;101492.97;10511909;28;20047;-73
2023/01/31 11:28:04;;;;;;;18.48;6.28;;;;;;;5.92;100.00;101494.88;10469314;28;20048;-73
2023/01/31 11:33:04;;;;;;;15.98;5.55;;;;;;;5.95;100.00;101496.38;10485029;28;20063;-73
2023/01/31 11:38:11;;;;;;;15.25;7.25;;;;;;;5.96;100.00;101503.53;10470928;28;20059;-73
2023/01/31 11:43:17;;;;;;;17.63;8.50;;;;;;;5.96;100.00;101492.59;10495071;28;20048;-73
2023/01/31 11:48:18;;;;;;;;;;;;;;;6.00;100.00;101482.94;10545204;28;20047;-74
2023/01/31 11:53:27;;;;;;;23.67;8.27;;;;;;;6.01;100.00;101490.06;10509370;28;19922;-73
2023/01/31 11:58:33;;;;;;;18.80;8.70;;;;;;;6.00;100.00;101500.16;10489840;28;20036;-74
2023/01/31 12:03:33;;;;;;;16.67;8.02;;;;;;;6.03;100.00;101498.91;10526924;28;20043;-73
2023/01/31 12:08:37;;;;;;;26.83;9.73;;;;;;;6.09;100.00;101476.19;10527111;28;20032;-72
2023/01/31 12:13:48;;;;;;;16.42;7.97;;;;;;;6.17;100.00;101465.06;10495064;28;20040;-72
2023/01/31 12:18:52;;;;;;;19.40;8.13;;;;;;;6.19;100.00;101460.22;10501388;28;20062;-73
2023/01/31 12:24:08;;;;;;;17.70;7.78;;;;;;;6.32;100.00;101442.13;10466545;28;20055;-72
2023/01/31 12:29:26;;;;;;;20.73;7.78;;;;;;;6.48;100.00;101447.16;10502280;28;20854;-72
2023/01/31 12:34:49;;;;;;;24.77;7.93;;;;;;;6.53;100.00;101444.63;10463405;28;20028;-72
2023/01/31 12:40:31;;;;;;;23.58;8.15;;;;;;;6.59;100.00;101430.06;10483990;28;20046;-72
2023/01/31 12:45:40;;;;;;;24.88;7.65;;;;;;;6.79;100.00;101420.97;10466962;28;20040;-72
2023/01/31 12:50:52;;;;;;;22.92;6.80;;;;;;;6.92;100.00;101404.50;10484509;28;20059;-72
2023/01/31 12:56:12;;;;;;;25.00;5.93;;;;;;;7.05;100.00;101382.53;10484475;28;20044;-71
2023/01/31 13:01:39;;;;;;;28.15;6.60;;;;;;;7.12;100.00;101381.66;10483921;28;20041;-71
2023/01/31 13:06:44;;;;;;;23.52;5.65;;;;;;;7.19;100.00;101368.75;10503309;28;20043;-72
2023/01/31 13:11:55;;;;;;;15.27;5.00;;;;;;;7.19;100.00;101374.25;10508161;28;20123;-72
2023/01/31 13:16:58;;;;;;;16.98;5.25;;;;;;;7.20;100.00;101375.94;10509008;28;20047;-72
2023/01/31 13:22:03;;;;;;;17.98;4.85;;;;;;;7.25;100.00;101376.09;10491930;28;20646;-71
2023/01/31 13:27:25;;;;;;;18.15;4.50;;;;;;;7.29;100.00;101393.78;10489239;28;20054;-72
2023/01/31 13:32:37;;;;;;;19.42;5.05;;;;;;;7.34;100.00;101374.78;10521297;28;20043;-72
2023/01/31 13:37:38;;;;;;;16.80;5.93;;;;;;;7.38;100.00;101397.94;10535455;28;20066;-70
2023/01/31 13:42:39;;;;;;;14.02;4.38;;;;;;;7.46;100.00;101405.03;10496420;28;20038;-71
2023/01/31 13:47:44;;;;;;;19.17;4.80;;;;;;;7.45;100.00;101414.34;10540172;28;20024;-72
2023/01/31 13:52:49;;;;;;;17.17;4.43;;;;;;;7.56;100.00;101404.56;10503994;28;20395;-72
2023/01/31 13:58:06;;;;;;;15.60;5.07;;;;;;;7.58;100.00;101394.22;10488311;28;20036;-71
2023/01/31 14:03:10;;;;;;;;;;;;;;;7.65;100.00;101409.56;10522397;28;20044;-70
2023/01/31 14:08:26;;;;;;;17.08;3.78;;;;;;;7.70;100.00;101416.28;10519973;28;19924;-71
2023/01/31 14:13:46;;;;;;;15.15;4.70;;;;;;;7.73;100.00;101413.94;10538245;28;20044;-71
2023/01/31 14:18:47;;;;;;;15.55;3.90;;;;;;;7.73;100.00;101404.84;10538734;28;20055;-71
2023/01/31 14:23:47;;;;;;;12.63;3.08;;;;;;;7.82;100.00;101403.53;10520987;28;20040;-71
2023/01/31 14:28:48;;;;;;;14.80;2.60;;;;;;;8.34;100.00;101433.47;10521152;28;20452;-70
2023/01/31 14:33:49;;;;;;;24.98;4.68;;;;;;;8.32;100.00;101408.16;10485109;28;20039;-71
2023/01/31 14:39:18;;;;;;;9.30;2.75;;;;;;;8.24;100.00;101425.75;10521057;28;20036;-70
2023/01/31 14:44:56;;;;;;;15.10;3.28;;;;;;;7.89;100.00;101410.63;10503202;28;20049;-70
2023/01/31 14:50:06;;;;;;;23.52;4.30;;;;;;;7.86;100.00;101430.28;10523074;28;20040;-70
2023/01/31 14:55:31;;;;;;;12.20;3.83;;;;;;;7.43;100.00;101446.59;10539465;28;20040;-73
2023/01/31 15:00:36;;;;;;;11.82;3.10;;;;;;;6.93;100.00;101460.94;10503194;28;20725;-76
2023/01/31 15:05:39;;;;;;;14.65;4.03;;;;;;;6.92;100.00;101450.19;10506669;28;20044;-72
2023/01/31 15:11:02;;;;;;;17.60;3.90;;;;;;;6.96;100.00;101459.66;10509658;28;20117;-72
2023/01/31 15:16:05;;;;;;;19.25;4.35;;;;;;;6.97;100.00;101464.91;10495404;28;20050;-72
2023/01/31 15:21:06;;;;;;;18.17;4.75;;;;;;;7.04;100.00;101456.66;10489384;28;20480;-72
2023/01/31 15:26:07;;;;;;;13.43;3.70;;;;;;;7.12;100.00;101458.34;10525261;28;20064;-72
2023/01/31 15:31:24;;;;;;;16.02;3.67;;;;;;;7.06;100.00;101471.81;10491235;28;20059;-71
2023/01/31 15:36:35;;;;;;;20.67;4.03;;;;;;;6.92;100.00;101453.75;10506473;28;20134;-70
2023/01/31 15:41:36;;;;;;;22.80;4.82;;;;;;;6.94;100.00;101479.03;10524508;28;20070;-71
2023/01/31 15:46:37;;;;;;;16.95;4.82;;;;;;;6.87;100.00;101470.00;10525706;28;20065;-71
2023/01/31 15:51:37;;;;;;;16.27;3.95;;;;;;;6.71;100.00;101443.09;10508693;28;20101;-70
2023/01/31 15:56:38;;;;;;;23.98;4.20;;;;;;;6.72;100.00;101489.41;10486911;28;20043;-72
2023/01/31 16:01:39;;;;;;;21.98;3.95;;;;;;;6.72;100.00;101492.16;10507363;28;20028;-72
2023/01/31 16:06:39;;;;;;;25.85;3.67;;;;;;;6.64;100.00;101478.69;10504472;28;20047;-73
2023/01/31 16:11:40;;;;;;;24.52;4.30;;;;;;;6.59;100.00;101487.50;10508321;28;20044;-72
2023/01/31 16:16:40;;;;;;;31.17;7.50;;;;;;;6.30;100.00;101449.69;10543394;28;20036;-73
2023/01/31 16:21:41;;;;;;;23.17;5.60;;;;;;;6.38;100.00;101485.88;10491777;28;20036;-72
2023/01/31 16:27:08;;;;;;;24.90;4.95;;;;;;;6.41;100.00;101498.31;10487303;28;20031;-72
2023/01/31 16:32:22;;;;;;;28.00;5.38;;;;;;;6.26;100.00;101491.16;10524095;28;20040;-71
2023/01/31 16:37:37;;;;;;;25.95;5.18;;;;;;;6.16;100.00;101495.31;10524936;28;20082;-70
2023/01/31 16:42:38;;;;;;;29.90;4.85;;;;;;;6.06;100.00;101502.06;10507003;28;20036;-71
2023/01/31 16:47:38;;;;;;;26.15;4.80;;;;;;;6.07;100.00;101505.63;10505062;28;20036;-71
2023/01/31 16:52:38;;;;;;;25.85;5.85;;;;;;;5.86;100.00;101499.28;10522710;28;20048;-71
2023/01/31 16:57:39;;;;;;;22.60;4.22;;;;;;;5.92;100.00;101513.16;10461123;28;20040;-71
2023/01/31 17:02:39;;;;;;;23.85;3.70;;;;;;;5.78;100.00;101507.66;10504936;28;20036;-71
2023/01/31 17:07:40;;;;;;;20.30;4.53;;;;;;;5.73;100.00;101521.13;10486131;28;20049;-70
2023/01/31 17:12:40;;;;;;;32.30;4.55;;;;;;;5.72;100.00;101508.50;10474545;28;20036;-70
2023/01/31 17:17:41;;;;;;;24.48;4.60;;;;;;;5.73;100.00;101526.59;10477572;28;20092;-70
2023/01/31 17:22:41;;;;;;;30.90;5.18;;;;;;;5.67;100.00;101519.22;10500847;28;20634;-70
2023/01/31 17:27:42;;;;;;;25.90;5.38;;;;;;;5.59;100.00;101522.13;10478248;28;20101;-70
2023/01/31 17:32:43;;;;;;;16.48;3.53;;;;;;;5.63;100.00;101520.66;10485333;28;20037;-70
2023/01/31 17:37:44;;;;;;;28.67;4.60;;;;;;;5.63;100.00;101542.53;10479312;28;20044;-70
2023/01/31 17:42:44;;;;;;;29.40;7.63;;;;;;;5.43;100.00;101513.22;10490886;28;20036;-70
2023/01/31 17:47:45;;;;;;;23.58;6.35;;;;;;;5.57;100.00;101529.69;10470720;28;20508;-72
2023/01/31 17:52:45;;;;;;;26.70;7.13;;;;;;;5.56;100.00;101527.97;10485714;28;20036;-73
2023/01/31 17:57:46;;;;;;;27.52;6.80;;;;;;;5.61;100.00;101520.03;10518353;28;20148;-73
2023/01/31 18:02:46;;;;;;;32.67;7.03;;;;;;;5.49;100.00;101511.59;10496681;28;20092;-74
2023/01/31 18:07:48;;;;;;;25.35;5.80;;;;;;;5.41;100.00;101518.06;10489397;28;20029;-72
2023/01/31 18:12:49;;;;;;;20.85;4.40;;;;;;;5.40;100.00;101516.38;10521983;28;20043;-72
2023/01/31 18:17:49;;;;;;;28.58;6.95;;;;;;;5.44;100.00;101500.44;10521550;28;20047;-69
2023/01/31 18:22:49;;;;;;;22.63;4.90;;;;;;;5.39;100.00;101511.13;10489127;28;20331;-72
2023/01/31 18:27:50;;;;;;;36.78;8.18;;;;;;;5.32;100.00;101527.47;10504298;28;20047;-71
2023/01/31 18:32:50;;;;;;;26.48;7.13;;;;;;;5.26;100.00;101531.88;10519773;28;20040;-71
2023/01/31 18:37:51;;;;;;;16.55;5.13;;;;;;;5.16;100.00;101522.38;10478092;28;20040;-71
2023/01/31 18:42:51;;;;;;;24.92;6.28;;;;;;;5.17;100.00;101524.06;10529344;28;20047;-71
2023/01/31 18:47:52;;;;;;;29.70;6.07;;;;;;;5.11;100.00;101527.59;10505292;28;20043;-71
2023/01/31 18:52:52;;;;;;;25.10;4.88;;;;;;;5.03;100.00;101526.72;10495118;28;20036;-71
2023/01/31 18:57:53;;;;;;;24.02;4.72;;;;;;;4.38;100.00;101435.25;10545050;28;20032;-72
2023/01/31 19:02:53;;;;;;;24.38;4.75;;;;;;;4.98;100.00;101540.13;10491742;28;20140;-69
2023/01/31 19:07:54;;;;;;;27.55;6.65;;;;;;;4.91;100.00;101550.16;10513792;28;20042;-71
2023/01/31 19:12:54;;;;;;;24.75;4.30;;;;;;;4.86;100.00;101536.28;10528367;28;20055;-71
2023/01/31 19:17:55;;;;;;;25.90;5.13;;;;;;;4.94;100.00;101540.72;10528072;28;20032;-70
2023/01/31 19:22:58;;;;;;;27.02;6.72;;;;;;;4.90;100.00;101543.03;10527901;28;20044;-71
2023/01/31 19:27:59;;;;;;;23.55;5.25;;;;;;;4.89;100.00;101557.69;10511688;28;20092;-71
2023/01/31 19:32:59;;;;;;;26.02;6.15;;;;;;;4.90;100.00;101569.44;10538104;28;20078;-71
2023/01/31 19:37:59;;;;;;;27.88;5.47;;;;;;;4.88;100.00;101542.38;10473730;28;20139;-71
2023/01/31 19:43:00;;;;;;;29.42;5.03;;;;;;;4.85;100.00;101534.59;10444854;28;20083;-72
2023/01/31 19:48:00;;;;;;;24.17;5.90;;;;;;;4.92;100.00;101540.06;10414492;28;20032;-71
2023/01/31 19:53:02;;;;;;;21.13;3.95;;;;;;;4.88;100.00;101539.66;10459765;28;20033;-73
2023/01/31 19:58:02;;;;;;;22.70;4.85;;;;;;;4.90;100.00;101556.66;10477272;28;20048;-71
2023/01/31 20:03:02;;;;;;;23.48;4.20;;;;;;;4.88;100.00;101539.66;10443169;28;20412;-71
2023/01/31 20:08:03;;;;;;;21.98;5.63;;;;;;;4.90;100.00;101548.47;10418541;28;20164;-71
2023/01/31 20:13:04;;;;;;;19.27;4.00;;;;;;;4.89;100.00;101538.59;10417293;28;20075;-71
2023/01/31 20:18:04;;;;;;;24.90;5.03;;;;;;;4.92;100.00;101557.31;10417035;28;20037;-71
2023/01/31 20:23:05;;;;;;;28.20;6.20;;;;;;;4.84;100.00;101538.38;10399934;28;20061;-73
2023/01/31 20:28:05;;;;;;;24.10;6.20;;;;;;;4.89;100.00;101551.41;10400715;28;20052;-72
2023/01/31 20:33:06;;;;;;;24.33;5.07;;;;;;;4.94;100.00;101548.91;10442829;28;20048;-72
2023/01/31 20:38:07;;;;;;;26.30;5.82;;;;;;;4.81;100.00;101527.84;10489456;28;20033;-72
2023/01/31 20:43:07;;;;;;;22.88;3.90;;;;;;;4.91;100.00;101533.78;10464971;28;20036;-72
2023/01/31 20:48:08;;;;;;;26.55;4.97;;;;;;;4.88;100.00;101526.00;10447935;28;20041;-72
2023/01/31 20:53:17;;;;;;;21.10;5.30;;;;;;;4.95;100.00;101535.06;10464692;28;20083;-71
2023/01/31 20:58:17;;;;;;;20.17;3.83;;;;;;;4.89;100.00;101535.88;10524680;28;20040;-71
2023/01/31 21:03:17;;;;;;;33.00;8.05;;;;;;;4.75;100.00;101509.53;10509589;28;20045;-72
2023/01/31 21:08:18;;;;;;;22.75;4.20;;;;;;;4.97;100.00;101524.78;10479782;28;20043;-72
2023/01/31 21:13:19;;;;;;;27.25;5.72;;;;;;;4.97;100.00;101522.06;10480496;28;20458;-72
2023/01/31 21:18:20;;;;;;;22.48;4.20;;;;;;;5.03;100.00;101515.78;10477553;28;20094;-72
2023/01/31 21:23:20;;;;;;;29.25;7.40;;;;;;;5.04;100.00;101520.22;10503906;28;20399;-73
2023/01/31 21:28:25;;;;;;;33.40;6.03;;;;;;;5.04;100.00;101514.78;10474468;28;20041;-72
2023/01/31 21:33:27;;;;;;;23.42;4.80;;;;;;;5.15;100.00;101524.25;10476354;28;20077;-72
2023/01/31 21:38:27;;;;;;;22.02;5.55;;;;;;;5.11;100.00;101527.59;10477947;28;20044;-73
2023/01/31 21:43:29;;;;;;;24.67;5.15;;;;;;;5.05;100.00;101519.16;10445895;28;20123;-72
2023/01/31 21:48:30;;;;;;;18.92;4.95;;;;;;;5.01;100.00;101517.06;10462768;28;20123;-71
2023/01/31 21:53:31;;;;;;;29.33;4.95;;;;;;;5.01;100.00;101517.88;10460230;28;20052;-72
2023/01/31 21:58:32;;;;;;;19.02;5.28;;;;;;;5.00;100.00;101509.88;10497318;28;20170;-71
2023/01/31 22:03:33;;;;;;;25.38;6.15;;;;;;;4.95;100.00;101513.22;10482527;28;20029;-72
2023/01/31 22:08:34;;;;;;;34.03;4.57;;;;;;;4.69;100.00;101458.53;10480004;28;20102;-73
2023/01/31 22:13:35;;;;;;;25.13;5.70;;;;;;;4.72;100.00;101486.25;10463941;28;20177;-72
2023/01/31 22:18:36;;;;;;;25.98;5.30;;;;;;;4.96;100.00;101506.75;10452071;28;20060;-72
2023/01/31 22:23:37;;;;;;;25.30;4.50;;;;;;;5.00;100.00;101523.53;10484943;28;20094;-72
2023/01/31 22:28:37;;;;;;;27.90;5.30;;;;;;;5.05;100.00;101519.16;10511747;28;20048;-67
2023/01/31 22:33:39;;;;;;;23.02;4.10;;;;;;;5.07;100.00;101520.88;10494337;28;20043;-71
2023/01/31 22:38:40;;;;;;;25.42;5.35;;;;;;;4.71;100.00;101457.28;10468225;28;20519;-71
2023/01/31 22:43:41;;;;;;;29.63;5.38;;;;;;;5.09;100.00;101510.59;10465328;28;20040;-71
2023/01/31 22:48:42;;;;;;;22.85;3.85;;;;;;;5.10;100.00;101484.97;10484364;28;20153;-72
2023/01/31 22:53:42;;;;;;;22.50;4.90;;;;;;;5.15;100.00;101488.78;10467434;28;20810;-72
2023/01/31 22:58:43;;;;;;;23.67;5.90;;;;;;;5.13;100.00;101485.41;10484300;28;20033;-71
2023/01/31 23:03:43;;;;;;;27.23;6.60;;;;;;;5.16;100.00;101481.44;10486013;28;20032;-72